Time;durP1;ratioP1;P1;durP2;ratioP2;P2;SDS_P1;SDS_P2;PMS_P1;PMS_P2;Temp;Humidity;BMP_temperature;BMP_pressure;BME280_temperature;BME280_humidity;BME280_pressure;Samples;Min_cycle;Max_cycle;Signal;HPM_P1;HPM_P2
2023/09/11 00:02:04;;;;;;;9.9;8.9;;;;;;;;;;;;;
2023/09/11 00:04:29;;;;;;;11.8;8.8;;;;;;;;;;;;;
2023/09/11 00:06:54;;;;;;;10.3;9.2;;;;;;;;;;;;;
2023/09/11 00:09:20;;;;;;;12.6;9.2;;;;;;;;;;;;;
2023/09/11 00:11:45;;;;;;;10.7;9.2;;;;;;;;;;;;;
2023/09/11 00:14:10;;;;;;;10.9;9;;;;;;;;;;;;;
2023/09/11 00:16:36;;;;;;;9.8;8.8;;;;;;;;;;;;;
2023/09/11 00:19:02;;;;;;;12.2;9.4;;;;;;;;;;;;;
2023/09/11 00:21:26;;;;;;;11.9;9.4;;;;;;;;;;;;;
2023/09/11 00:23:52;;;;;;;11.2;10;;;;;;;;;;;;;
2023/09/11 00:26:17;;;;;;;12.1;9.9;;;;;;;;;;;;;
2023/09/11 00:28:43;;;;;;;11.1;9.9;;;;;;;;;;;;;
2023/09/11 00:31:08;;;;;;;10;8.7;;;;;;;;;;;;;
2023/09/11 00:33:34;;;;;;;11.9;9.4;;;;;;;;;;;;;
2023/09/11 00:35:59;;;;;;;12.2;9.5;;;;;;;;;;;;;
2023/09/11 00:38:25;;;;;;;11;8.8;;;;;;;;;;;;;
2023/09/11 00:40:50;;;;;;;11.7;9;;;;;;;;;;;;;
2023/09/11 00:43:16;;;;;;;12.2;9.4;;;;;;;;;;;;;
2023/09/11 00:45:41;;;;;;;10;8.9;;;;;;;;;;;;;
2023/09/11 00:48:07;;;;;;;10.6;9.5;;;;;;;;;;;;;
2023/09/11 00:50:35;;;;;;;10.7;8.9;;;;;;;;;;;;;
2023/09/11 00:52:57;;;;;;;11.5;9.7;;;;;;;;;;;;;
2023/09/11 00:55:22;;;;;;;9.6;8.6;;;;;;;;;;;;;
2023/09/11 00:57:47;;;;;;;9.9;8.9;;;;;;;;;;;;;
2023/09/11 01:00:14;;;;;;;10.4;9.2;;;;;;;;;;;;;
2023/09/11 01:02:38;;;;;;;10.7;9.6;;;;;;;;;;;;;
2023/09/11 01:05:07;;;;;;;11.4;9.4;;;;;;;;;;;;;
2023/09/11 01:07:29;;;;;;;11.2;8.8;;;;;;;;;;;;;
2023/09/11 01:09:59;;;;;;;10.2;9.1;;;;;;;;;;;;;
2023/09/11 01:12:20;;;;;;;10.9;9.6;;;;;;;;;;;;;
2023/09/11 01:14:46;;;;;;;10.7;9.2;;;;;;;;;;;;;
2023/09/11 01:17:11;;;;;;;10;9;;;;;;;;;;;;;
2023/09/11 01:19:36;;;;;;;10.1;9;;;;;;;;;;;;;
2023/09/11 01:22:01;;;;;;;11.9;9.2;;;;;;;;;;;;;
2023/09/11 01:24:27;;;;;;;10.4;9.2;;;;;;;;;;;;;
2023/09/11 01:26:51;;;;;;;10.7;8.8;;;;;;;;;;;;;
2023/09/11 01:29:17;;;;;;;10.6;9.5;;;;;;;;;;;;;
2023/09/11 01:31:42;;;;;;;10.6;9.2;;;;;;;;;;;;;
2023/09/11 01:34:07;;;;;;;11.2;9;;;;;;;;;;;;;
2023/09/11 01:36:32;;;;;;;11.2;9;;;;;;;;;;;;;
2023/09/11 01:38:57;;;;;;;10.1;9.1;;;;;;;;;;;;;
2023/09/11 01:41:23;;;;;;;11.6;9.3;;;;;;;;;;;;;
2023/09/11 01:43:48;;;;;;;10.1;9;;;;;;;;;;;;;
2023/09/11 01:46:14;;;;;;;9.7;8.6;;;;;;;;;;;;;
2023/09/11 01:48:39;;;;;;;10.2;9.1;;;;;;;;;;;;;
2023/09/11 01:51:05;;;;;;;11;9.2;;;;;;;;;;;;;
2023/09/11 01:53:30;;;;;;;10.7;9.6;;;;;;;;;;;;;
2023/09/11 01:55:56;;;;;;;10.7;9.6;;;;;;;;;;;;;
2023/09/11 01:58:21;;;;;;;11.5;9.7;;;;;;;;;;;;;
2023/09/11 02:00:47;;;;;;;11.4;9.4;;;;;;;;;;;;;
2023/09/11 02:03:12;;;;;;;10.8;9;;;;;;;;;;;;;
2023/09/11 02:05:37;;;;;;;10.5;9.4;;;;;;;;;;;;;
2023/09/11 02:08:02;;;;;;;10.7;9.4;;;;;;;;;;;;;
2023/09/11 02:10:27;;;;;;;11.3;9.3;;;;;;;;;;;;;
2023/09/11 02:12:53;;;;;;;10.2;9.2;;;;;;;;;;;;;
2023/09/11 02:15:18;;;;;;;10;9;;;;;;;;;;;;;
2023/09/11 02:17:45;;;;;;;9.7;8.7;;;;;;;;;;;;;
2023/09/11 02:20:10;;;;;;;10.6;9.5;;;;;;;;;;;;;
2023/09/11 02:22:36;;;;;;;10.5;9.3;;;;;;;;;;;;;
2023/09/11 02:25:01;;;;;;;10.5;9.4;;;;;;;;;;;;;
2023/09/11 02:27:28;;;;;;;11.7;9.7;;;;;;;;;;;;;
2023/09/11 02:29:53;;;;;;;12.2;9.3;;;;;;;;;;;;;
2023/09/11 02:32:19;;;;;;;11.8;10.1;;;;;;;;;;;;;
2023/09/11 02:34:44;;;;;;;16.2;10.8;;;;;;;;;;;;;
2023/09/11 02:37:09;;;;;;;12.6;10.2;;;;;;;;;;;;;
2023/09/11 02:39:35;;;;;;;11.4;10.2;;;;;;;;;;;;;
2023/09/11 02:41:59;;;;;;;11.5;10.1;;;;;;;;;;;;;
2023/09/11 02:44:25;;;;;;;11;9.9;;;;;;;;;;;;;
2023/09/11 02:46:50;;;;;;;10.6;9.5;;;;;;;;;;;;;
2023/09/11 02:49:17;;;;;;;12.3;10.2;;;;;;;;;;;;;
2023/09/11 02:51:41;;;;;;;11.3;9.8;;;;;;;;;;;;;
2023/09/11 02:54:06;;;;;;;11.8;9.6;;;;;;;;;;;;;
2023/09/11 02:56:34;;;;;;;11.1;9.8;;;;;;;;;;;;;
2023/09/11 02:58:57;;;;;;;11.4;9.1;;;;;;;;;;;;;
2023/09/11 03:01:22;;;;;;;11;9.8;;;;;;;;;;;;;
2023/09/11 03:03:48;;;;;;;11.5;9.9;;;;;;;;;;;;;
2023/09/11 03:06:13;;;;;;;10.9;9.8;;;;;;;;;;;;;
2023/09/11 03:08:38;;;;;;;11.4;9.7;;;;;;;;;;;;;
2023/09/11 03:11:05;;;;;;;10.6;9.5;;;;;;;;;;;;;
2023/09/11 03:13:30;;;;;;;11.1;9.9;;;;;;;;;;;;;
2023/09/11 03:15:56;;;;;;;10;9;;;;;;;;;;;;;
2023/09/11 03:18:21;;;;;;;11.8;9.5;;;;;;;;;;;;;
2023/09/11 03:20:46;;;;;;;10.9;9.4;;;;;;;;;;;;;
2023/09/11 03:23:12;;;;;;;11.4;9.6;;;;;;;;;;;;;
2023/09/11 03:25:47;;;;;;;11.8;9.8;;;;;;;;;;;;;
2023/09/11 03:28:08;;;;;;;9.9;8.9;;;;;;;;;;;;;
2023/09/11 03:30:33;;;;;;;10.9;9.6;;;;;;;;;;;;;
2023/09/11 03:32:59;;;;;;;10.8;9.5;;;;;;;;;;;;;
2023/09/11 03:35:25;;;;;;;11.5;9.5;;;;;;;;;;;;;
2023/09/11 03:37:50;;;;;;;12;9.9;;;;;;;;;;;;;
2023/09/11 03:40:15;;;;;;;11.2;10;;;;;;;;;;;;;
2023/09/11 03:42:41;;;;;;;11.4;9.5;;;;;;;;;;;;;
2023/09/11 03:45:07;;;;;;;10.8;9.7;;;;;;;;;;;;;
2023/09/11 03:47:32;;;;;;;11.2;10.1;;;;;;;;;;;;;
2023/09/11 03:49:58;;;;;;;10.4;9.2;;;;;;;;;;;;;
2023/09/11 03:52:23;;;;;;;11;9.8;;;;;;;;;;;;;
2023/09/11 03:54:48;;;;;;;11.1;9.6;;;;;;;;;;;;;
2023/09/11 03:57:15;;;;;;;12.3;10.5;;;;;;;;;;;;;
2023/09/11 03:59:40;;;;;;;11.4;10.2;;;;;;;;;;;;;
2023/09/11 04:02:36;;;;;;;11.2;9.9;;;;;;;19.06;96.16797;938.6757;;;;
2023/09/11 04:05:02;;;;;;;13.2;10.4;;;;;;;19.03;96.64941;938.6465;;;;
2023/09/11 04:07:26;;;;;;;11.2;9.7;;;;;;;19.02;96.28809;938.6512;;;;
2023/09/11 04:09:52;;;;;;;11.6;10.4;;;;;;;19.1;95.6543;938.6755;;;;
2023/09/11 04:12:17;;;;;;;10.8;9.7;;;;;;;18.86;97.37012;938.6903;;;;
2023/09/11 04:14:43;;;;;;;11.3;9.9;;;;;;;19;96.6084;938.6581;;;;
2023/09/11 04:17:10;;;;;;;11.1;9.5;;;;;;;18.96;96.27441;938.6406;;;;
2023/09/11 04:19:33;;;;;;;10.7;9.1;;;;;;;18.92;96.18359;938.6398;;;;
2023/09/11 04:21:59;;;;;;;10.7;9.6;;;;;;;18.97;95.89453;938.5828;;;;
2023/09/11 04:24:24;;;;;;;11.7;9.3;;;;;;;18.98;95.73145;938.6449;;;;
2023/09/11 04:26:52;;;;;;;10.4;9.4;;;;;;;18.98;96.03613;938.6384;;;;
2023/09/11 04:29:20;;;;;;;11.5;9.5;;;;;;;19.08;94.35547;938.6406;;;;
2023/09/11 04:31:47;;;;;;;11.5;10.3;;;;;;;19.16;94.4668;938.6249;;;;
2023/09/11 04:34:09;;;;;;;11.1;9.9;;;;;;;19.17;93.30371;938.6117;;;;
2023/09/11 04:36:35;;;;;;;10.6;9.5;;;;;;;19.16;93.4082;938.6516;;;;
2023/09/11 04:39:00;;;;;;;12.7;10.2;;;;;;;19.04;94.62793;938.6253;;;;
2023/09/11 04:41:29;;;;;;;10.9;9.6;;;;;;;19.03;95.49707;938.5787;;;;
2023/09/11 04:43:55;;;;;;;12.1;9.9;;;;;;;19.18;94.35547;938.639;;;;
2023/09/11 04:46:19;;;;;;;11.4;10.2;;;;;;;19.27;93.81543;938.6656;;;;
2023/09/11 04:48:45;;;;;;;12.9;9.5;;;;;;;19.4;92.52637;938.6931;;;;
2023/09/11 04:51:19;;;;;;;11.7;10;;;;;;;19.44;92.2793;938.7189;;;;
2023/09/11 04:53:45;;;;;;;11.3;9.8;;;;;;;19.4;92.26953;938.7206;;;;
2023/09/11 04:56:12;;;;;;;11.9;9.7;;;;;;;19.48;91.20313;938.7133;;;;
2023/09/11 04:58:37;;;;;;;11.6;9.8;;;;;;;19.58;90.5459;938.6046;;;;
2023/09/11 05:01:10;;;;;;;11.3;10.1;;;;;;;19.63;90.2998;938.6925;;;;
2023/09/11 05:03:35;;;;;;;13.9;9.9;;;;;;;19.46;91.33691;938.738;;;;
2023/09/11 05:06:00;;;;;;;13.4;10.2;;;;;;;19.27;92.33691;938.7179;;;;
2023/09/11 05:08:28;;;;;;;12.4;10.4;;;;;;;19.25;92.84375;938.7312;;;;
2023/09/11 05:10:54;;;;;;;12.4;10.3;;;;;;;19.36;92.46973;938.7442;;;;
2023/09/11 05:13:20;;;;;;;11.9;9.9;;;;;;;19.41;92.10645;938.7575;;;;
2023/09/11 05:15:49;;;;;;;11.9;9.6;;;;;;;19.48;91.63184;938.7844;;;;
2023/09/11 05:18:15;;;;;;;11.6;9.6;;;;;;;19.49;91.51953;938.8076;;;;
2023/09/11 05:20:40;;;;;;;11;9.1;;;;;;;19.51;91.29004;938.7569;;;;
2023/09/11 05:23:08;;;;;;;11.3;9.4;;;;;;;19.48;91.20313;938.6503;;;;
2023/09/11 05:25:33;;;;;;;10.4;9.3;;;;;;;19.26;92.08789;938.6948;;;;
2023/09/11 05:27:58;;;;;;;10.4;9;;;;;;;19.24;92.07422;938.7097;;;;
2023/09/11 05:30:23;;;;;;;11.4;9.2;;;;;;;19.13;92.82031;938.7095;;;;
2023/09/11 05:32:52;;;;;;;11.1;9.7;;;;;;;19.19;92.77344;938.7364;;;;
2023/09/11 05:35:15;;;;;;;11.3;9.3;;;;;;;19.17;93.22266;938.7401;;;;
2023/09/11 05:37:43;;;;;;;12.3;9.8;;;;;;;19.2;93.28809;938.7572;;;;
2023/09/11 05:40:08;;;;;;;10.6;9.5;;;;;;;19.24;93.53027;938.7687;;;;
2023/09/11 05:42:34;;;;;;;10.1;9.1;;;;;;;19.3;93.61035;938.7496;;;;
2023/09/11 05:44:59;;;;;;;11.9;10.1;;;;;;;19.41;93.87988;938.7098;;;;
2023/09/11 05:47:24;;;;;;;11.2;9.5;;;;;;;19.58;93.12109;938.6667;;;;
2023/09/11 05:49:49;;;;;;;12.4;9.1;;;;;;;19.65;92.6123;938.7025;;;;
2023/09/11 05:52:20;;;;;;;12.5;9.5;;;;;;;19.97;91.66504;938.7181;;;;
2023/09/11 05:54:45;;;;;;;11.7;9;;;;;;;20.55;90.27832;938.6969;;;;
2023/09/11 05:57:12;;;;;;;12;9;;;;;;;21.22;84.75195;938.6699;;;;
2023/09/11 05:59:37;;;;;;;10.9;8.4;;;;;;;21.79;82.10938;938.7111;;;;
2023/09/11 06:02:03;;;;;;;9.4;8.2;;;;;;;22.16;79.87793;938.7304;;;;
2023/09/11 06:04:30;;;;;;;12.4;7.9;;;;;;;22.84;77.75879;938.6545;;;;
2023/09/11 06:06:56;;;;;;;8.9;8;;;;;;;23.32;74.16309;938.7411;;;;
2023/09/11 06:09:21;;;;;;;10.7;7.4;;;;;;;23.55;72.96582;938.7633;;;;
2023/09/11 06:11:46;;;;;;;10.1;8.5;;;;;;;23.21;74.23926;938.7466;;;;
2023/09/11 06:14:11;;;;;;;9.8;8.5;;;;;;;23.46;73.91699;938.7072;;;;
2023/09/11 06:16:38;;;;;;;10.1;8.8;;;;;;;23.63;72.86133;938.7134;;;;
2023/09/11 06:19:03;;;;;;;10.3;8;;;;;;;24;70.9209;938.657;;;;
2023/09/11 06:21:30;;;;;;;8.9;8;;;;;;;24.05;71.50586;938.6876;;;;
2023/09/11 06:23:55;;;;;;;8.9;8;;;;;;;24.34;69.80859;938.7003;;;;
2023/09/11 06:26:22;;;;;;;9.2;8.2;;;;;;;24.44;69.80078;938.6931;;;;
2023/09/11 06:28:47;;;;;;;9;8.1;;;;;;;24.7;68.42676;938.6573;;;;
2023/09/11 06:31:12;;;;;;;9.3;8.3;;;;;;;24.19;69.90234;938.6436;;;;
2023/09/11 06:33:37;;;;;;;9.2;8;;;;;;;24.3;70.13184;938.6297;;;;
2023/09/11 06:36:04;;;;;;;10.4;8.3;;;;;;;24.61;69.21484;938.592;;;;
2023/09/11 06:38:29;;;;;;;9.4;8.4;;;;;;;24.13;70.53027;938.5461;;;;
2023/09/11 06:40:55;;;;;;;8.9;8;;;;;;;24.06;71.33105;938.552;;;;
2023/09/11 06:43:21;;;;;;;9.4;8.1;;;;;;;24.01;72.2998;938.5392;;;;
2023/09/11 06:45:47;;;;;;;8.8;7.8;;;;;;;23.78;72.96875;938.5411;;;;
2023/09/11 06:48:12;;;;;;;9.1;8.2;;;;;;;23.95;73.04395;938.5711;;;;
2023/09/11 06:50:39;;;;;;;8.8;7.9;;;;;;;23.97;72.65918;938.5059;;;;
2023/09/11 06:53:05;;;;;;;10.5;8;;;;;;;23.73;74.06641;938.5018;;;;
2023/09/11 06:55:30;;;;;;;8.8;7.9;;;;;;;23.9;74.35547;938.4324;;;;
2023/09/11 06:57:56;;;;;;;8.6;7.8;;;;;;;23.86;73.65332;938.4836;;;;
2023/09/11 07:00:20;;;;;;;10.3;8.4;;;;;;;23.93;73.46387;938.4835;;;;
2023/09/11 07:02:46;;;;;;;10.2;8.3;;;;;;;24.34;72.43652;938.4952;;;;
2023/09/11 07:05:11;;;;;;;9.2;8.3;;;;;;;24.57;72.80469;938.4152;;;;
2023/09/11 07:07:38;;;;;;;9.1;8.1;;;;;;;24.53;71.40723;938.4397;;;;
2023/09/11 07:10:03;;;;;;;10.3;7.9;;;;;;;25.31;69.07422;938.3844;;;;
2023/09/11 07:12:30;;;;;;;9.2;8.3;;;;;;;25.5;66.95508;938.4001;;;;
2023/09/11 07:14:55;;;;;;;9.2;8.2;;;;;;;25.96;65.62891;938.3912;;;;
2023/09/11 07:17:22;;;;;;;9.9;7.9;;;;;;;26.46;63.85449;938.384;;;;
2023/09/11 07:19:48;;;;;;;8.5;7.6;;;;;;;27.15;61.92383;938.3848;;;;
2023/09/11 07:22:15;;;;;;;9.5;7.8;;;;;;;28.16;59.1416;938.334;;;;
2023/09/11 07:24:40;;;;;;;8.5;7.7;;;;;;;28.3;57.22266;938.3259;;;;
2023/09/11 07:27:05;;;;;;;8.6;7.7;;;;;;;29.43;55.06543;938.3234;;;;
2023/09/11 07:29:30;;;;;;;8;7.2;;;;;;;30.09;53.33301;938.2919;;;;
2023/09/11 07:31:55;;;;;;;8.6;7.3;;;;;;;29.78;53.5459;938.3214;;;;
2023/09/11 07:34:22;;;;;;;8;7.2;;;;;;;29.56;53.56836;938.195;;;;
2023/09/11 07:36:47;;;;;;;7.8;7;;;;;;;28.73;55.07422;938.2897;;;;
2023/09/11 07:39:14;;;;;;;7.4;6.6;;;;;;;29.11;54.03809;938.2206;;;;
2023/09/11 07:41:39;;;;;;;8;7.2;;;;;;;29;53.76367;938.2228;;;;
2023/09/11 07:44:05;;;;;;;8.8;7.8;;;;;;;29.41;54.58594;938.1816;;;;
2023/09/11 07:46:30;;;;;;;9.4;7.1;;;;;;;29.78;52.49707;938.2461;;;;
2023/09/11 07:48:58;;;;;;;7.7;6.9;;;;;;;29.58;52.83105;938.1921;;;;
2023/09/11 07:51:26;;;;;;;8.1;7.3;;;;;;;29.8;52.84473;938.1656;;;;
2023/09/11 07:53:48;;;;;;;9.1;8.1;;;;;;;29.77;52.09082;938.145;;;;
2023/09/11 07:56:13;;;;;;;10.2;7.1;;;;;;;29.18;53.79688;938.0968;;;;
2023/09/11 07:58:38;;;;;;;8.3;7.5;;;;;;;28.78;54.16504;938.0669;;;;
2023/09/11 08:01:06;;;;;;;8.4;7.6;;;;;;;29.06;54.94824;938.0986;;;;
2023/09/11 08:03:31;;;;;;;8;7.2;;;;;;;29.6;54.39551;938.0361;;;;
2023/09/11 08:05:59;;;;;;;9;7.4;;;;;;;29.91;53.25293;938.0367;;;;
2023/09/11 08:08:24;;;;;;;8.2;7.4;;;;;;;30.31;51.62598;938.0491;;;;
2023/09/11 08:10:52;;;;;;;8.4;7.5;;;;;;;29.95;51.02539;938.0392;;;;
2023/09/11 08:13:17;;;;;;;8.3;7.5;;;;;;;30.08;51.95801;938.0287;;;;
2023/09/11 08:15:43;;;;;;;9.2;7.4;;;;;;;30.5;51.44531;938.0477;;;;
2023/09/11 08:18:09;;;;;;;8;7.3;;;;;;;30.61;50.31055;938.0492;;;;
2023/09/11 08:20:34;;;;;;;8.3;7.5;;;;;;;30.55;50.91406;938.0449;;;;
2023/09/11 08:23:01;;;;;;;7.8;7;;;;;;;29.91;52.05859;938.0157;;;;
2023/09/11 08:25:26;;;;;;;8.4;7.7;;;;;;;29.03;56.37402;938.0673;;;;
2023/09/11 08:27:51;;;;;;;14.3;7.3;;;;;;;29.35;54.78223;938.0592;;;;
2023/09/11 08:30:16;;;;;;;8.1;7.3;;;;;;;29;54.17969;938.0372;;;;
2023/09/11 08:32:42;;;;;;;8.5;7.6;;;;;;;29.43;55.12598;938.0234;;;;
2023/09/11 08:35:08;;;;;;;8.8;7.8;;;;;;;28.63;56.66895;938.0347;;;;
2023/09/11 08:37:35;;;;;;;8.9;7.6;;;;;;;28.6;58.62891;938.0454;;;;
2023/09/11 08:40:00;;;;;;;9.9;7.6;;;;;;;28.65;59.89551;938.0508;;;;
2023/09/11 08:42:26;;;;;;;8.6;7.6;;;;;;;28.65;59.88379;938.0396;;;;
2023/09/11 08:44:51;;;;;;;8.2;7.4;;;;;;;28.35;61.41211;938.0402;;;;
2023/09/11 08:47:17;;;;;;;9.2;8.2;;;;;;;27.99;62.45508;937.9975;;;;
2023/09/11 08:49:44;;;;;;;9.1;7.9;;;;;;;27.95;63.4375;937.9969;;;;
2023/09/11 08:52:07;;;;;;;8.2;7.4;;;;;;;28.39;62.29883;938.0103;;;;
2023/09/11 08:54:32;;;;;;;8.6;7.8;;;;;;;29.1;58.41895;938.0133;;;;
2023/09/11 08:56:57;;;;;;;8.7;7.8;;;;;;;29;56.73926;938.0158;;;;
2023/09/11 08:59:22;;;;;;;9.6;7.6;;;;;;;29.4;57.5293;937.9886;;;;
2023/09/11 09:01:49;;;;;;;8.8;7.9;;;;;;;29.46;55.99902;937.8884;;;;
2023/09/11 09:04:14;;;;;;;8.6;7.7;;;;;;;29.26;56.5332;937.9124;;;;
2023/09/11 09:06:45;;;;;;;8.9;7.7;;;;;;;29.39;55.47754;937.9434;;;;
2023/09/11 09:09:08;;;;;;;8.5;7.7;;;;;;;29.23;55.25684;937.8884;;;;
2023/09/11 09:11:35;;;;;;;8.4;7.6;;;;;;;28.9;58.25098;937.8845;;;;
2023/09/11 09:13:59;;;;;;;8.7;7.8;;;;;;;28.98;59.28418;937.8525;;;;
2023/09/11 09:16:24;;;;;;;8;7.2;;;;;;;28.86;57.79297;937.8395;;;;
2023/09/11 09:18:51;;;;;;;8.4;7.5;;;;;;;29.25;53.97266;937.8078;;;;
2023/09/11 09:21:16;;;;;;;8.7;7.2;;;;;;;29.55;53.44629;937.8116;;;;
2023/09/11 09:23:41;;;;;;;8;7.2;;;;;;;29.88;52.87891;937.772;;;;
2023/09/11 09:26:06;;;;;;;7.7;6.9;;;;;;;29.99;52.47363;937.7648;;;;
2023/09/11 09:28:32;;;;;;;7.7;6.9;;;;;;;29.72;56.50879;937.7536;;;;
2023/09/11 09:30:56;;;;;;;7.5;6.8;;;;;;;29.11;58.61133;937.7043;;;;
2023/09/11 09:33:21;;;;;;;8.5;7.3;;;;;;;28.79;57.41699;937.6797;;;;
2023/09/11 09:35:46;;;;;;;7.5;6.8;;;;;;;29.03;57.24414;937.6573;;;;
2023/09/11 09:38:12;;;;;;;7.5;6.7;;;;;;;29.09;61.43066;937.6072;;;;
2023/09/11 09:40:37;;;;;;;8.9;6.9;;;;;;;28.65;58.30176;937.6042;;;;
2023/09/11 09:43:03;;;;;;;12.9;8.8;;;;;;;28.31;61.94336;937.5722;;;;
2023/09/11 09:45:27;;;;;;;8;7.2;;;;;;;28.24;61.40918;937.473;;;;
2023/09/11 09:47:52;;;;;;;10.6;7.4;;;;;;;28.54;59.10742;937.5023;;;;
2023/09/11 09:50:17;;;;;;;11.7;8.3;;;;;;;28.73;54.62305;937.4697;;;;
2023/09/11 09:52:43;;;;;;;7.7;6.9;;;;;;;28.5;58.37695;937.4308;;;;
2023/09/11 09:55:09;;;;;;;6.3;5.6;;;;;;;28.51;58.25977;937.4207;;;;
2023/09/11 09:57:35;;;;;;;13.5;8.2;;;;;;;28.9;56.83398;937.3745;;;;
2023/09/11 10:00:01;;;;;;;18.3;10.2;;;;;;;29.07;56.47461;937.3976;;;;
2023/09/11 10:02:27;;;;;;;14.3;9.2;;;;;;;29;55.91797;937.3386;;;;
2023/09/11 10:04:52;;;;;;;8;6.6;;;;;;;28.64;59.09668;937.3109;;;;
2023/09/11 10:07:19;;;;;;;7.2;6.5;;;;;;;28.59;58.63965;937.2594;;;;
2023/09/11 10:09:44;;;;;;;7.6;6.3;;;;;;;28.92;57.26465;937.2758;;;;
2023/09/11 10:12:10;;;;;;;7.5;6.6;;;;;;;29.1;55.28711;937.2184;;;;
2023/09/11 10:14:35;;;;;;;10.8;6.9;;;;;;;29.47;54.79785;937.1729;;;;
2023/09/11 10:17:01;;;;;;;8.9;7;;;;;;;29.68;56.55078;937.1406;;;;
2023/09/11 10:19:27;;;;;;;8;7.2;;;;;;;29.85;55.5459;937.1658;;;;
2023/09/11 10:21:52;;;;;;;8.5;7.3;;;;;;;30.03;56.67871;937.1872;;;;
2023/09/11 10:24:19;;;;;;;7.4;6.4;;;;;;;29.63;58.22559;937.0829;;;;
2023/09/11 10:26:44;;;;;;;7.2;6.5;;;;;;;30.16;54.96387;937.0648;;;;
2023/09/11 10:29:10;;;;;;;9.5;6.9;;;;;;;29.94;57.22754;937.0552;;;;
2023/09/11 10:31:35;;;;;;;6.9;6;;;;;;;30.26;52.69531;937.0876;;;;
2023/09/11 10:34:00;;;;;;;10;6.5;;;;;;;30.03;54.11133;936.9681;;;;
2023/09/11 10:36:27;;;;;;;7.1;6.4;;;;;;;30.4;54.93359;937.011;;;;
2023/09/11 10:38:52;;;;;;;6.6;6;;;;;;;30.7;52.81836;936.9927;;;;
2023/09/11 10:41:18;;;;;;;7.4;6.1;;;;;;;30.65;52.89551;936.9777;;;;
2023/09/11 10:43:45;;;;;;;7.5;6.7;;;;;;;30.88;52.81641;936.9313;;;;
2023/09/11 10:46:10;;;;;;;6.9;6.2;;;;;;;31.21;49.62402;936.897;;;;
2023/09/11 10:48:35;;;;;;;7.1;6.4;;;;;;;30.92;51.69629;936.9011;;;;
2023/09/11 10:51:01;;;;;;;6.7;6.1;;;;;;;30.84;51.18555;936.8914;;;;
2023/09/11 10:53:26;;;;;;;6.5;5.9;;;;;;;30.9;52.67578;936.8568;;;;
2023/09/11 10:55:51;;;;;;;7.5;6.8;;;;;;;30.96;51.77344;936.8508;;;;
2023/09/11 10:58:16;;;;;;;7.3;6.6;;;;;;;30.73;51.52051;936.7679;;;;
2023/09/11 11:00:42;;;;;;;7.3;6.3;;;;;;;30.7;53.08301;936.8027;;;;
2023/09/11 11:03:07;;;;;;;7.2;6.4;;;;;;;31.52;49.50293;936.8194;;;;
2023/09/11 11:05:31;;;;;;;6.8;6.1;;;;;;;31.75;50.11523;936.808;;;;
2023/09/11 11:07:57;;;;;;;7.9;6.6;;;;;;;31.83;48.9375;936.7252;;;;
2023/09/11 11:10:22;;;;;;;8.5;6.6;;;;;;;31.91;50.46777;936.7061;;;;
2023/09/11 11:12:48;;;;;;;6.7;6;;;;;;;31.82;49.88379;936.6965;;;;
2023/09/11 11:15:18;;;;;;;7.4;6.5;;;;;;;32.09;48.07813;936.5919;;;;
2023/09/11 11:17:45;;;;;;;7;6.4;;;;;;;32.41;46.90137;936.5615;;;;
2023/09/11 11:20:11;;;;;;;6.8;6.2;;;;;;;33.44;44.35059;936.5079;;;;
2023/09/11 11:22:37;;;;;;;7.3;5.8;;;;;;;34.25;42.71875;936.5572;;;;
2023/09/11 11:25:05;;;;;;;6.9;6.2;;;;;;;33.67;44.42188;936.4698;;;;
2023/09/11 11:27:27;;;;;;;6.3;5.8;;;;;;;34.27;42.22754;936.5285;;;;
2023/09/11 11:29:53;;;;;;;6.7;6.1;;;;;;;34.02;42.64941;936.4838;;;;
2023/09/11 11:32:18;;;;;;;7.2;6.6;;;;;;;33.42;43.91602;936.4383;;;;
2023/09/11 11:34:43;;;;;;;6.4;5.8;;;;;;;31.69;49.10254;936.3795;;;;
2023/09/11 11:37:09;;;;;;;6.4;5.8;;;;;;;31.38;50.37207;936.3754;;;;
2023/09/11 11:39:34;;;;;;;7.2;6.2;;;;;;;31.64;48.80957;936.4423;;;;
2023/09/11 11:42:02;;;;;;;6.6;5.9;;;;;;;31.14;50.25098;936.431;;;;
2023/09/11 11:44:29;;;;;;;7.2;5.6;;;;;;;31.33;49.67383;936.3998;;;;
2023/09/11 11:46:51;;;;;;;7.7;5.8;;;;;;;31.57;49.54297;936.4;;;;
2023/09/11 11:49:17;;;;;;;6.6;6;;;;;;;30.7;52.59277;936.3856;;;;
2023/09/11 11:51:44;;;;;;;10;6.4;;;;;;;30.34;52.84766;936.4299;;;;
2023/09/11 11:54:08;;;;;;;8.4;6.4;;;;;;;30.47;53.50781;936.3627;;;;
2023/09/11 11:56:33;;;;;;;8;6.3;;;;;;;30.8;51.61133;936.4191;;;;
2023/09/11 11:58:59;;;;;;;7;6.1;;;;;;;30.63;53.58789;936.3816;;;;
2023/09/11 12:01:25;;;;;;;7.2;6.2;;;;;;;30.86;50.74512;936.392;;;;
2023/09/11 12:03:52;;;;;;;6.6;6;;;;;;;30.97;50.44727;936.4069;;;;
2023/09/11 12:06:17;;;;;;;6.2;5.6;;;;;;;31.02;49.65039;936.3245;;;;
2023/09/11 12:08:44;;;;;;;6.8;6.2;;;;;;;30.68;51.16699;936.3655;;;;
2023/09/11 12:11:08;;;;;;;6.7;6.1;;;;;;;30.31;53.03613;936.3879;;;;
2023/09/11 12:13:34;;;;;;;7.8;6.1;;;;;;;30.47;51.28711;936.3317;;;;
2023/09/11 12:15:59;;;;;;;6.7;6;;;;;;;30.87;49.7793;936.2856;;;;
2023/09/11 12:18:26;;;;;;;7.5;5.7;;;;;;;31.18;47.66016;936.2661;;;;
2023/09/11 12:20:51;;;;;;;6.4;5.8;;;;;;;30.85;49.96777;936.2299;;;;
2023/09/11 12:23:17;;;;;;;7.6;6;;;;;;;30.73;51.07813;936.2809;;;;
2023/09/11 12:25:42;;;;;;;6.8;5.4;;;;;;;30.59;50.84766;936.305;;;;
2023/09/11 12:28:09;;;;;;;7.2;6.2;;;;;;;30.15;51.69238;936.2703;;;;
2023/09/11 12:30:34;;;;;;;8;5.9;;;;;;;30.18;50.76465;936.2925;;;;
2023/09/11 12:33:00;;;;;;;6.8;5.7;;;;;;;30.59;48.68457;936.2056;;;;
2023/09/11 12:35:26;;;;;;;6.5;5.6;;;;;;;30.32;51.02051;936.1878;;;;
2023/09/11 12:37:51;;;;;;;7.2;5.5;;;;;;;30.02;50.54395;936.1906;;;;
2023/09/11 12:40:16;;;;;;;6.6;5.5;;;;;;;29.94;51.94238;936.256;;;;
2023/09/11 12:42:41;;;;;;;6.6;5.9;;;;;;;30.05;52.09863;936.2495;;;;
2023/09/11 12:45:08;;;;;;;6.9;5.5;;;;;;;29.71;52.40527;936.2619;;;;
2023/09/11 12:47:33;;;;;;;6.3;5.3;;;;;;;29.71;52.9541;936.2186;;;;
2023/09/11 12:49:58;;;;;;;6.6;5.6;;;;;;;30.01;50.55469;936.1588;;;;
2023/09/11 12:52:23;;;;;;;6.5;5.3;;;;;;;29.95;50.71582;936.0762;;;;
2023/09/11 12:54:49;;;;;;;7.7;6.2;;;;;;;29.85;50.1543;936.1306;;;;
2023/09/11 12:57:14;;;;;;;5.6;5.1;;;;;;;29.82;50.12793;936.1186;;;;
2023/09/11 12:59:39;;;;;;;5.7;5;;;;;;;29.94;48.62598;936.1194;;;;
2023/09/11 13:02:06;;;;;;;6.2;5.6;;;;;;;30.16;49.76074;936.0803;;;;
2023/09/11 13:04:30;;;;;;;5.8;5.1;;;;;;;30.4;47.45801;936.087;;;;
2023/09/11 13:06:55;;;;;;;5.6;5.1;;;;;;;30.54;48.27344;936.0745;;;;
2023/09/11 13:09:20;;;;;;;5.6;5;;;;;;;30.62;47.08594;936.0786;;;;
2023/09/11 13:11:46;;;;;;;7.3;4.9;;;;;;;30.5;47.73047;936.0795;;;;
2023/09/11 13:14:14;;;;;;;7.4;5.3;;;;;;;30.51;48.30566;936.0461;;;;
2023/09/11 13:16:36;;;;;;;6.7;5.2;;;;;;;30.53;47.94824;936.0329;;;;
2023/09/11 13:19:03;;;;;;;5.9;5.3;;;;;;;30.5;47.37207;936.085;;;;
2023/09/11 13:21:26;;;;;;;5.6;5.1;;;;;;;30.48;46.89258;936.0667;;;;
2023/09/11 13:23:53;;;;;;;6;5.4;;;;;;;30.33;48.33398;935.9997;;;;
2023/09/11 13:26:18;;;;;;;7.1;5.5;;;;;;;30.37;47.59766;935.9519;;;;
2023/09/11 13:28:44;;;;;;;7.8;5.1;;;;;;;30.35;47.36914;935.949;;;;
2023/09/11 13:31:09;;;;;;;5.8;5.2;;;;;;;30.34;47.94141;935.9053;;;;
2023/09/11 13:33:35;;;;;;;5.7;5.1;;;;;;;30.42;47.26855;935.8742;;;;
2023/09/11 13:36:00;;;;;;;5.9;5;;;;;;;30.41;48.25879;935.8947;;;;
2023/09/11 13:38:27;;;;;;;7.1;4.9;;;;;;;29.94;49.13867;935.9426;;;;
2023/09/11 13:40:52;;;;;;;5.8;5.2;;;;;;;29.9;47.2627;935.8582;;;;
2023/09/11 13:43:19;;;;;;;6.8;5.2;;;;;;;29.57;51.01758;935.9381;;;;
2023/09/11 13:45:44;;;;;;;5.9;5;;;;;;;29.76;48.98926;935.8995;;;;
2023/09/11 13:48:11;;;;;;;6.6;5.2;;;;;;;29.32;51.74023;935.9127;;;;
2023/09/11 13:50:36;;;;;;;8.3;5.5;;;;;;;28.75;52.79297;935.8128;;;;
2023/09/11 13:53:02;;;;;;;5.5;5;;;;;;;28.73;53.91016;935.8427;;;;
2023/09/11 13:55:26;;;;;;;8.4;5.6;;;;;;;28.92;52.06348;935.8411;;;;
2023/09/11 13:57:52;;;;;;;6.8;5.4;;;;;;;29.25;50.26758;935.8309;;;;
2023/09/11 14:00:17;;;;;;;7.5;5.3;;;;;;;29.31;52.57324;935.8869;;;;
2023/09/11 14:02:43;;;;;;;7.2;5.2;;;;;;;29.25;52.10156;935.8423;;;;
2023/09/11 14:05:09;;;;;;;6.8;5.5;;;;;;;29.51;51.36914;935.9207;;;;
2023/09/11 14:07:35;;;;;;;6.3;5.7;;;;;;;29.72;49.75879;935.9119;;;;
2023/09/11 14:10:01;;;;;;;7.3;5.7;;;;;;;29.48;50.11523;935.9397;;;;
2023/09/11 14:12:26;;;;;;;6.2;5.4;;;;;;;29.19;52.09473;935.9652;;;;
2023/09/11 14:14:51;;;;;;;7.1;5.5;;;;;;;29.29;51.55762;935.9263;;;;
2023/09/11 14:17:18;;;;;;;6.7;6.1;;;;;;;29.15;53.16211;935.8892;;;;
2023/09/11 14:19:43;;;;;;;6.8;5.4;;;;;;;29.34;51.09863;935.9147;;;;
2023/09/11 14:22:08;;;;;;;6.2;5.6;;;;;;;28.6;52.91797;935.8814;;;;
2023/09/11 14:24:34;;;;;;;7.9;6.1;;;;;;;28.17;54.4248;935.8703;;;;
2023/09/11 14:26:59;;;;;;;15.3;6;;;;;;;28.25;52.59277;935.8196;;;;
2023/09/11 14:29:25;;;;;;;7.6;5.6;;;;;;;28.23;52.93457;935.8222;;;;
2023/09/11 14:31:50;;;;;;;6.5;5.9;;;;;;;28.22;51.28223;935.8373;;;;
2023/09/11 14:34:16;;;;;;;6.6;5.9;;;;;;;28.47;50.28711;935.7545;;;;
2023/09/11 14:36:41;;;;;;;9.4;5.7;;;;;;;28.21;53.63379;935.7233;;;;
2023/09/11 14:39:07;;;;;;;8;5.5;;;;;;;27.92;54.16895;935.7327;;;;
2023/09/11 14:41:33;;;;;;;6.6;5.7;;;;;;;27.95;52.83008;935.7422;;;;
2023/09/11 14:43:59;;;;;;;5.9;5.3;;;;;;;28.17;53.30762;935.7045;;;;
2023/09/11 14:46:23;;;;;;;5.7;5.2;;;;;;;28.21;52.49219;935.7131;;;;
2023/09/11 14:48:49;;;;;;;5.8;5.3;;;;;;;28.35;52.1875;935.6617;;;;
2023/09/11 14:51:14;;;;;;;7.9;5.8;;;;;;;28.47;50.97656;935.7414;;;;
2023/09/11 14:53:41;;;;;;;6.1;5.4;;;;;;;28.26;52.28418;935.7302;;;;
2023/09/11 14:56:06;;;;;;;8.8;5.7;;;;;;;28.36;50.25195;935.6687;;;;
2023/09/11 14:58:32;;;;;;;6.6;5.2;;;;;;;28.58;49.43066;935.6854;;;;
2023/09/11 15:00:57;;;;;;;7.3;5.2;;;;;;;28.46;51.17871;935.6763;;;;
2023/09/11 15:03:23;;;;;;;6.2;5.6;;;;;;;28.13;52.7207;935.6666;;;;
2023/09/11 15:05:48;;;;;;;6.1;5.5;;;;;;;27.85;55.34863;935.6755;;;;
2023/09/11 15:08:14;;;;;;;6.9;5.4;;;;;;;28.1;53.2168;935.6206;;;;
2023/09/11 15:10:42;;;;;;;6.7;5.5;;;;;;;28.07;53.87793;935.6373;;;;
2023/09/11 15:13:03;;;;;;;5.9;5.3;;;;;;;28;53.50195;935.5838;;;;
2023/09/11 15:15:29;;;;;;;7;5.2;;;;;;;27.95;53.3877;935.5965;;;;
2023/09/11 15:17:54;;;;;;;5.7;5.1;;;;;;;27.68;55.17188;935.6865;;;;
2023/09/11 15:20:20;;;;;;;6.1;5.5;;;;;;;27.73;54.69141;935.6454;;;;
2023/09/11 15:22:45;;;;;;;5.7;5.1;;;;;;;27.42;55.80566;935.6163;;;;
2023/09/11 15:25:10;;;;;;;7.9;5.8;;;;;;;27.4;56.6084;935.5978;;;;